Time;durP1;ratioP1;P1;durP2;ratioP2;P2;SDS_P1;SDS_P2;PMS_P1;PMS_P2;Temp;Humidity;BMP_temperature;BMP_pressure;BME280_temperature;BME280_humidity;BME280_pressure;Samples;Min_cycle;Max_cycle;Signal;HPM_P1;HPM_P2
2022/02/13 00:01:13;;;;;;;15.02;7.75;;;2.70;96.40;;;;;;5012538;28;25096;-66
2022/02/13 00:03:39;;;;;;;17.25;8.18;;;2.70;96.50;;;;;;5022551;28;25064;-66
2022/02/13 00:06:04;;;;;;;14.02;8.43;;;2.60;96.60;;;;;;5014116;28;25143;-66
2022/02/13 00:08:30;;;;;;;16.95;8.90;;;2.60;96.70;;;;;;5007644;28;25144;-66
2022/02/13 00:10:55;;;;;;;14.90;8.15;;;2.60;96.80;;;;;;5007768;28;25160;-67
2022/02/13 00:13:23;;;;;;;14.02;7.80;;;2.60;97.00;;;;;;4998038;28;25123;-66
2022/02/13 00:15:49;;;;;;;16.83;8.05;;;2.50;97.10;;;;;;5019832;28;25147;-66
2022/02/13 00:18:15;;;;;;;18.45;8.88;;;2.60;97.30;;;;;;5010015;28;25171;-67
2022/02/13 00:20:40;;;;;;;17.63;8.05;;;2.60;97.20;;;;;;5006476;28;25164;-65
2022/02/13 00:23:08;;;;;;;15.90;8.35;;;2.60;97.20;;;;;;5024908;28;25109;-68
2022/02/13 00:25:33;;;;;;;20.20;8.38;;;2.60;97.60;;;;;;5023942;28;25076;-66
2022/02/13 00:27:59;;;;;;;13.65;8.20;;;2.60;97.40;;;;;;5025822;28;25084;-67
2022/02/13 00:30:25;;;;;;;14.35;8.25;;;2.60;97.50;;;;;;5024610;28;25066;-65
2022/02/13 00:32:51;;;;;;;15.85;9.15;;;2.60;97.50;;;;;;5012200;28;25151;-65
2022/02/13 00:35:17;;;;;;;14.52;8.35;;;2.60;97.70;;;;;;5005295;28;25135;-67
2022/02/13 00:37:43;;;;;;;16.05;8.85;;;2.60;97.80;;;;;;5005139;28;25066;-67
2022/02/13 00:40:09;;;;;;;18.27;9.18;;;2.60;97.80;;;;;;5005555;28;25126;-67
2022/02/13 00:42:35;;;;;;;17.08;9.02;;;2.50;97.90;;;;;;5005670;28;25088;-66
2022/02/13 00:45:02;;;;;;;18.60;8.70;;;2.60;98.20;;;;;;5024581;28;25115;-67
2022/02/13 00:47:27;;;;;;;15.88;8.75;;;2.50;98.20;;;;;;5023808;28;25074;-66
2022/02/13 00:49:53;;;;;;;16.77;7.97;;;2.50;98.50;;;;;;5012408;28;25047;-66
2022/02/13 00:52:18;;;;;;;17.90;8.65;;;2.50;98.50;;;;;;5004758;28;25057;-65
2022/02/13 00:54:45;;;;;;;17.52;8.68;;;2.50;98.60;;;;;;5004705;28;25079;-65
2022/02/13 00:57:10;;;;;;;16.50;9.00;;;2.50;98.60;;;;;;5005061;28;25085;-66
2022/02/13 00:59:36;;;;;;;16.98;8.20;;;2.50;98.70;;;;;;5004771;28;25097;-68
2022/02/13 01:02:01;;;;;;;20.70;9.30;;;2.50;98.60;;;;;;5004502;28;25136;-67
2022/02/13 01:04:27;;;;;;;17.73;8.90;;;2.40;98.90;;;;;;5013578;28;25108;-66
2022/02/13 01:06:52;;;;;;;17.17;7.50;;;2.40;99.10;;;;;;5006718;28;25114;-66
2022/02/13 01:09:18;;;;;;;15.98;8.75;;;2.40;99.40;;;;;;4992354;28;25061;-68
2022/02/13 01:11:44;;;;;;;17.33;9.25;;;2.30;99.80;;;;;;5026042;28;25070;-65
2022/02/13 01:14:09;;;;;;;18.95;9.98;;;2.30;99.90;;;;;;5007456;28;25067;-65
2022/02/13 01:16:35;;;;;;;21.83;9.07;;;2.20;99.90;;;;;;5010656;28;25134;-67
2022/02/13 01:19:01;;;;;;;16.27;9.07;;;2.20;99.90;;;;;;5006601;28;25136;-66
2022/02/13 01:21:29;;;;;;;20.17;8.77;;;2.10;99.90;;;;;;5022995;28;25070;-67
2022/02/13 01:23:55;;;;;;;17.40;9.85;;;2.10;99.90;;;;;;5014423;28;24916;-64
2022/02/13 01:26:20;;;;;;;16.48;8.98;;;2.10;99.90;;;;;;5009647;28;25099;-69
2022/02/13 01:28:47;;;;;;;16.95;9.80;;;2.10;99.90;;;;;;5005434;28;25103;-68
2022/02/13 01:31:13;;;;;;;23.05;9.43;;;2.00;99.90;;;;;;5005119;28;25105;-67
2022/02/13 01:33:39;;;;;;;19.55;9.05;;;2.10;99.90;;;;;;5035817;28;25071;-65
2022/02/13 01:36:05;;;;;;;19.10;9.75;;;2.00;99.90;;;;;;5028302;28;25105;-67
2022/02/13 01:38:31;;;;;;;13.18;8.07;;;2.00;99.90;;;;;;4996462;28;25057;-67
2022/02/13 01:40:57;;;;;;;14.43;8.63;;;2.00;99.90;;;;;;5027191;28;25065;-68
2022/02/13 01:43:22;;;;;;;16.52;8.60;;;2.00;99.90;;;;;;5027900;28;25104;-68
2022/02/13 01:45:48;;;;;;;16.13;8.45;;;2.10;99.90;;;;;;5028071;28;25061;-67
2022/02/13 01:48:14;;;;;;;16.95;8.45;;;2.10;99.90;;;;;;5013788;28;25067;-68
2022/02/13 01:50:41;;;;;;;17.20;8.20;;;2.10;99.90;;;;;;5006055;28;25063;-68
2022/02/13 01:53:09;;;;;;;18.48;9.23;;;2.00;99.90;;;;;;5014729;28;25109;-67
2022/02/13 01:55:35;;;;;;;17.27;8.65;;;2.10;99.90;;;;;;4993001;28;25156;-69
2022/02/13 01:58:02;;;;;;;15.93;8.77;;;2.00;99.90;;;;;;5018538;28;25117;-68
2022/02/13 02:00:27;;;;;;;18.60;8.80;;;2.10;99.90;;;;;;4998180;28;25065;-68
2022/02/13 02:02:53;;;;;;;15.10;8.32;;;2.10;99.90;;;;;;5012914;28;25146;-67
2022/02/13 02:05:19;;;;;;;14.40;8.13;;;2.00;99.90;;;;;;5010859;28;25089;-65
2022/02/13 02:07:44;;;;;;;16.73;8.38;;;2.10;99.90;;;;;;5015319;28;25102;-68
2022/02/13 02:10:11;;;;;;;15.75;8.50;;;2.10;99.90;;;;;;5007869;28;25104;-69
2022/02/13 02:12:37;;;;;;;18.17;8.00;;;2.10;99.90;;;;;;5007644;28;25054;-67
2022/02/13 02:15:05;;;;;;;13.05;7.28;;;2.10;99.90;;;;;;5012071;28;25081;-66
2022/02/13 02:17:32;;;;;;;20.45;9.27;;;2.20;99.90;;;;;;4987768;28;25103;-64
2022/02/13 02:19:57;;;;;;;13.50;7.93;;;2.10;99.90;;;;;;5003643;28;25109;-65
2022/02/13 02:22:23;;;;;;;17.20;8.82;;;2.20;99.90;;;;;;5017352;28;25155;-66
2022/02/13 02:24:49;;;;;;;18.88;8.98;;;2.10;99.90;;;;;;5010915;28;25080;-66
2022/02/13 02:27:15;;;;;;;15.93;8.50;;;2.10;99.90;;;;;;5009832;28;25059;-68
2022/02/13 02:29:40;;;;;;;16.85;9.00;;;2.10;99.90;;;;;;5008302;28;25056;-68
2022/02/13 02:32:10;;;;;;;15.65;9.25;;;2.10;99.90;;;;;;4995670;28;25059;-68
2022/02/13 02:34:38;;;;;;;17.98;8.20;;;2.10;99.90;;;;;;5010146;28;25081;-70
2022/02/13 02:37:04;;;;;;;15.80;8.23;;;2.10;99.90;;;;;;5024008;28;25100;-68
2022/02/13 02:39:30;;;;;;;16.50;8.20;;;2.10;99.90;;;;;;5023102;28;25346;-67
2022/02/13 02:41:55;;;;;;;14.07;7.93;;;2.10;99.90;;;;;;5020359;28;25052;-68
2022/02/13 02:44:21;;;;;;;16.55;8.05;;;2.00;99.90;;;;;;5023650;28;25181;-67
2022/02/13 02:46:46;;;;;;;15.02;8.45;;;2.10;99.90;;;;;;5028368;28;25156;-66
2022/02/13 02:49:12;;;;;;;15.88;8.20;;;2.10;99.90;;;;;;5028717;28;25068;-67
2022/02/13 02:51:37;;;;;;;14.25;8.05;;;2.10;99.90;;;;;;5014671;28;25052;-69
2022/02/13 02:54:03;;;;;;;19.60;9.18;;;2.00;99.90;;;;;;5016044;28;25078;-67
2022/02/13 02:56:29;;;;;;;14.20;7.55;;;2.00;99.90;;;;;;5006231;28;25076;-66
2022/02/13 02:58:55;;;;;;;15.75;8.57;;;2.00;99.90;;;;;;5022898;28;25096;-67
2022/02/13 03:01:20;;;;;;;15.40;8.07;;;2.10;99.90;;;;;;5027696;28;25083;-67
2022/02/13 03:03:46;;;;;;;18.63;8.30;;;2.00;99.90;;;;;;5008979;28;25134;-69
2022/02/13 03:06:12;;;;;;;17.35;8.27;;;2.00;99.90;;;;;;5024756;28;25026;-67
2022/02/13 03:08:37;;;;;;;19.80;9.07;;;2.00;99.90;;;;;;5023601;28;25071;-68
2022/02/13 03:11:03;;;;;;;14.38;7.97;;;2.00;99.90;;;;;;5018847;28;25112;-69
2022/02/13 03:13:29;;;;;;;12.35;7.93;;;2.00;99.90;;;;;;4979714;28;25073;-68
2022/02/13 03:15:54;;;;;;;17.08;8.75;;;2.00;99.90;;;;;;5006794;28;25065;-68
2022/02/13 03:18:20;;;;;;;15.63;8.18;;;2.10;99.90;;;;;;5013453;28;25097;-68
2022/02/13 03:20:47;;;;;;;15.75;7.72;;;2.10;99.90;;;;;;5008225;28;25156;-67
2022/02/13 03:23:13;;;;;;;15.80;8.43;;;2.10;99.90;;;;;;5025960;28;25094;-68
2022/02/13 03:25:40;;;;;;;18.80;8.38;;;2.10;99.90;;;;;;5021581;28;25112;-69
2022/02/13 03:28:06;;;;;;;17.98;8.20;;;2.10;99.90;;;;;;5028269;28;25063;-67
2022/02/13 03:30:32;;;;;;;17.65;7.95;;;2.00;99.90;;;;;;5028071;28;25064;-68
2022/02/13 03:32:58;;;;;;;13.23;7.63;;;2.00;99.90;;;;;;4990548;28;25119;-67
2022/02/13 03:35:24;;;;;;;13.48;7.57;;;2.00;99.90;;;;;;5031211;28;25144;-69
2022/02/13 03:37:50;;;;;;;11.38;7.45;;;2.00;99.90;;;;;;5015533;28;25118;-68
2022/02/13 03:40:16;;;;;;;16.55;8.23;;;1.90;99.90;;;;;;5006924;28;25157;-67
2022/02/13 03:42:42;;;;;;;17.13;8.38;;;2.00;99.90;;;;;;5006347;28;25128;-68
2022/02/13 03:45:08;;;;;;;15.13;7.65;;;2.00;99.90;;;;;;5012377;28;25078;-68
2022/02/13 03:47:34;;;;;;;13.80;7.90;;;1.90;99.90;;;;;;5007327;28;25092;-69
2022/02/13 03:49:59;;;;;;;14.48;8.30;;;1.90;99.90;;;;;;5016739;28;25071;-66
2022/02/13 03:52:27;;;;;;;14.68;7.80;;;1.90;99.90;;;;;;5017573;28;25158;-67
2022/02/13 03:54:52;;;;;;;16.88;8.23;;;1.90;99.90;;;;;;5007914;28;25059;-68
2022/02/13 03:57:18;;;;;;;13.73;8.57;;;1.90;99.90;;;;;;4989185;28;25081;-68
2022/02/13 03:59:43;;;;;;;17.92;8.00;;;1.80;99.90;;;;;;5006499;28;25160;-69
2022/02/13 04:02:09;;;;;;;15.98;8.02;;;1.80;99.90;;;;;;5015766;28;25060;-67
2022/02/13 04:04:34;;;;;;;14.32;8.02;;;1.80;99.90;;;;;;4991399;28;25051;-67
2022/02/13 04:07:00;;;;;;;15.55;8.25;;;1.90;99.90;;;;;;4992979;28;25114;-67
2022/02/13 04:09:26;;;;;;;15.85;8.23;;;1.90;99.90;;;;;;5011231;28;25079;-65
2022/02/13 04:11:51;;;;;;;18.23;7.53;;;1.90;99.90;;;;;;5032492;28;25143;-68
2022/02/13 04:14:17;;;;;;;14.80;7.60;;;1.90;99.90;;;;;;5011235;28;25078;-68
2022/02/13 04:16:42;;;;;;;15.98;8.68;;;1.90;99.90;;;;;;5008356;28;25061;-68
2022/02/13 04:19:08;;;;;;;19.20;8.30;;;1.80;99.90;;;;;;5007506;28;25131;-67
2022/02/13 04:21:33;;;;;;;17.80;8.07;;;1.80;99.90;;;;;;5007085;28;25146;-67
2022/02/13 04:23:59;;;;;;;14.50;8.50;;;1.80;99.90;;;;;;5007213;28;25148;-68
2022/02/13 04:26:25;;;;;;;17.30;8.70;;;1.90;99.90;;;;;;5010602;28;25056;-68
2022/02/13 04:28:51;;;;;;;15.15;8.00;;;1.90;99.90;;;;;;5006878;28;25100;-69
2022/02/13 04:31:16;;;;;;;16.25;8.27;;;1.90;99.90;;;;;;5006238;28;25097;-69
2022/02/13 04:33:42;;;;;;;19.40;8.77;;;1.90;99.90;;;;;;5009214;28;25051;-67
2022/02/13 04:36:08;;;;;;;19.92;9.35;;;1.90;99.90;;;;;;5007369;28;25078;-68
2022/02/13 04:38:34;;;;;;;20.33;9.63;;;1.90;99.90;;;;;;5008064;28;25096;-68
2022/02/13 04:41:00;;;;;;;16.75;8.13;;;1.90;99.90;;;;;;5024844;28;25091;-68
2022/02/13 04:43:27;;;;;;;15.45;8.15;;;2.00;99.90;;;;;;5026180;28;25060;-66
2022/02/13 04:45:53;;;;;;;11.90;7.95;;;1.90;99.90;;;;;;5009934;28;25065;-68
2022/02/13 04:48:18;;;;;;;17.17;8.30;;;1.90;99.90;;;;;;5012898;28;25097;-67
2022/02/13 04:50:44;;;;;;;11.65;7.53;;;1.90;99.90;;;;;;4999102;28;25075;-67
2022/02/13 04:53:09;;;;;;;14.40;7.97;;;1.90;99.90;;;;;;5014663;28;25081;-68
2022/02/13 04:55:35;;;;;;;12.35;7.47;;;1.90;99.90;;;;;;5006230;28;25099;-68
2022/02/13 04:58:03;;;;;;;12.77;7.30;;;1.90;99.90;;;;;;5009205;28;25123;-67
2022/02/13 05:00:29;;;;;;;18.02;8.20;;;1.90;99.90;;;;;;5016954;28;25065;-67
2022/02/13 05:02:54;;;;;;;13.73;7.70;;;1.90;99.90;;;;;;5029190;28;25127;-68
2022/02/13 05:05:21;;;;;;;14.55;7.90;;;1.90;99.90;;;;;;5017410;28;25063;-67
2022/02/13 05:07:47;;;;;;;15.23;8.02;;;1.90;99.90;;;;;;5011380;28;25141;-67
2022/02/13 05:10:13;;;;;;;18.20;8.77;;;1.90;99.90;;;;;;5005593;28;25063;-67
2022/02/13 05:12:38;;;;;;;16.55;7.57;;;1.90;99.90;;;;;;5010340;28;25059;-67
2022/02/13 05:15:04;;;;;;;17.02;8.00;;;1.90;99.90;;;;;;5003659;28;25131;-67
2022/02/13 05:17:36;;;;;;;11.85;7.60;;;2.00;99.90;;;;;;5006238;28;25114;-67
2022/02/13 05:20:06;;;;;;;12.80;7.70;;;2.00;99.90;;;;;;5000439;28;25077;-68
2022/02/13 05:22:32;;;;;;;15.73;7.80;;;2.00;99.90;;;;;;4995042;28;25064;-69
2022/02/13 05:24:58;;;;;;;15.48;9.23;;;2.00;99.90;;;;;;5004997;28;25077;-68
2022/02/13 05:27:24;;;;;;;13.75;7.68;;;1.90;99.90;;;;;;5008307;28;25062;-67
2022/02/13 05:29:50;;;;;;;14.40;8.05;;;1.90;99.90;;;;;;5009399;28;25073;-68
2022/02/13 05:32:16;;;;;;;19.50;9.73;;;1.90;99.90;;;;;;5010934;28;25081;-67
2022/02/13 05:34:41;;;;;;;13.00;8.13;;;1.90;99.90;;;;;;4992931;28;25131;-69
2022/02/13 05:37:07;;;;;;;13.57;8.20;;;1.90;99.90;;;;;;5010538;28;25143;-68
2022/02/13 05:39:33;;;;;;;17.00;8.55;;;1.90;99.90;;;;;;5009236;28;25138;-67
2022/02/13 05:41:59;;;;;;;15.02;8.75;;;1.90;99.90;;;;;;5010315;28;25160;-68
2022/02/13 05:44:25;;;;;;;14.65;7.85;;;1.90;99.90;;;;;;5006844;28;25124;-68
2022/02/13 05:46:51;;;;;;;15.40;8.63;;;2.00;99.90;;;;;;5007771;28;25080;-68
2022/02/13 05:49:16;;;;;;;14.07;8.10;;;2.00;99.90;;;;;;5009610;28;25069;-67
2022/02/13 05:51:43;;;;;;;17.48;8.85;;;2.00;99.90;;;;;;5010870;28;25061;-67
2022/02/13 05:54:09;;;;;;;16.35;8.43;;;2.00;99.90;;;;;;5008215;28;25114;-67
2022/02/13 05:56:34;;;;;;;15.40;8.32;;;2.00;99.90;;;;;;5007557;28;25092;-69
2022/02/13 05:59:00;;;;;;;17.80;7.93;;;2.00;99.90;;;;;;5006378;28;25125;-68
2022/02/13 06:01:27;;;;;;;18.45;8.35;;;2.00;99.90;;;;;;4989377;28;25136;-68
2022/02/13 06:03:52;;;;;;;14.85;8.43;;;2.00;99.90;;;;;;5006470;28;25074;-68
2022/02/13 06:06:18;;;;;;;16.90;8.50;;;2.00;99.90;;;;;;5009350;28;25130;-67
2022/02/13 06:08:44;;;;;;;16.48;8.05;;;2.00;99.90;;;;;;5006274;28;25136;-67
2022/02/13 06:11:12;;;;;;;18.80;8.55;;;2.00;99.90;;;;;;4987977;28;25068;-69
2022/02/13 06:13:38;;;;;;;17.88;9.05;;;2.00;99.90;;;;;;5008978;28;25068;-69
2022/02/13 06:16:06;;;;;;;18.05;8.48;;;1.90;99.90;;;;;;5008137;28;25074;-67
2022/02/13 06:18:33;;;;;;;11.60;7.32;;;1.90;99.90;;;;;;5006863;28;25089;-67
2022/02/13 06:20:59;;;;;;;13.40;7.85;;;2.00;99.90;;;;;;5018917;28;25137;-67
2022/02/13 06:23:25;;;;;;;17.17;8.63;;;1.90;99.90;;;;;;5018063;28;25166;-68
2022/02/13 06:25:50;;;;;;;15.43;7.80;;;2.00;99.90;;;;;;5007375;28;25130;-67
2022/02/13 06:28:16;;;;;;;17.88;8.93;;;2.00;99.90;;;;;;5022382;28;25080;-69
2022/02/13 06:30:42;;;;;;;16.40;8.35;;;2.00;99.90;;;;;;5009031;28;25091;-68
2022/02/13 06:33:08;;;;;;;18.02;8.68;;;2.00;99.90;;;;;;4997841;28;25135;-68
2022/02/13 06:35:34;;;;;;;15.30;8.02;;;2.00;99.90;;;;;;4999616;28;25151;-68
2022/02/13 06:38:02;;;;;;;14.63;8.07;;;2.00;99.90;;;;;;5007117;28;25070;-69
2022/02/13 06:40:29;;;;;;;19.05;8.13;;;2.00;99.90;;;;;;4989898;28;25062;-69
2022/02/13 06:42:54;;;;;;;17.42;8.18;;;2.00;99.90;;;;;;5006843;28;25127;-67
2022/02/13 06:45:20;;;;;;;11.02;7.40;;;2.10;99.90;;;;;;5016130;28;25094;-68
2022/02/13 06:47:46;;;;;;;14.25;7.35;;;2.10;99.90;;;;;;5026431;28;25086;-69
2022/02/13 06:50:12;;;;;;;19.95;8.43;;;2.10;99.90;;;;;;5014040;28;25072;-68
2022/02/13 06:52:38;;;;;;;12.98;7.60;;;2.20;99.90;;;;;;5013186;28;25121;-68
2022/02/13 06:55:04;;;;;;;13.48;8.13;;;2.20;99.90;;;;;;4994571;28;25095;-68
2022/02/13 06:57:29;;;;;;;14.07;8.05;;;2.30;99.90;;;;;;5017348;28;25079;-68
2022/02/13 06:59:55;;;;;;;15.15;8.35;;;2.30;99.90;;;;;;5024055;28;25126;-68
2022/02/13 07:02:20;;;;;;;16.20;7.80;;;2.30;99.90;;;;;;5017828;28;25074;-69
2022/02/13 07:04:46;;;;;;;14.52;8.45;;;2.30;99.90;;;;;;5005085;28;25063;-69
2022/02/13 07:07:12;;;;;;;12.80;8.20;;;2.30;99.90;;;;;;5029659;28;25049;-67
2022/02/13 07:09:37;;;;;;;13.75;7.78;;;2.30;99.90;;;;;;5024354;28;25067;-68
2022/02/13 07:12:09;;;;;;;12.63;7.47;;;2.40;99.90;;;;;;5030645;28;25084;-68
2022/02/13 07:14:39;;;;;;;15.87;7.73;;;2.40;99.90;;;;;;5011942;28;25065;-68
2022/02/13 07:17:05;;;;;;;13.02;7.85;;;2.50;99.90;;;;;;5009365;28;25069;-69
2022/02/13 07:19:31;;;;;;;14.40;7.22;;;2.50;99.90;;;;;;5028251;28;25074;-68
2022/02/13 07:21:57;;;;;;;12.45;7.57;;;2.50;99.90;;;;;;5030127;28;25094;-67
2022/02/13 07:24:23;;;;;;;15.68;7.85;;;2.50;99.90;;;;;;5021592;28;25099;-68
2022/02/13 07:26:48;;;;;;;13.77;7.50;;;2.50;99.90;;;;;;5008310;28;25049;-69
2022/02/13 07:29:14;;;;;;;18.45;8.25;;;2.60;99.90;;;;;;5009502;28;25079;-68
2022/02/13 07:31:40;;;;;;;11.88;7.28;;;2.60;99.90;;;;;;5032977;28;25155;-68
2022/02/13 07:34:06;;;;;;;16.20;7.35;;;2.60;99.90;;;;;;5014004;28;25135;-69
2022/02/13 07:36:34;;;;;;;12.77;7.85;;;2.70;99.90;;;;;;5012722;28;25135;-67
2022/02/13 07:39:00;;;;;;;10.50;7.03;;;2.70;99.90;;;;;;5026806;28;25101;-68
2022/02/13 07:41:26;;;;;;;14.95;7.75;;;2.70;99.90;;;;;;5032172;28;25066;-68
2022/02/13 07:43:53;;;;;;;13.60;7.47;;;2.70;99.90;;;;;;5034007;28;25054;-68
2022/02/13 07:46:19;;;;;;;10.88;7.35;;;2.80;99.90;;;;;;5033695;28;25090;-66
2022/02/13 07:48:45;;;;;;;14.02;7.30;;;2.80;99.90;;;;;;5024876;28;25080;-66
2022/02/13 07:51:12;;;;;;;15.10;7.45;;;2.80;99.90;;;;;;5014888;28;25050;-66
2022/02/13 07:53:39;;;;;;;13.15;7.70;;;2.90;99.90;;;;;;5015108;28;25124;-66
2022/02/13 07:56:05;;;;;;;13.80;7.30;;;2.90;99.90;;;;;;5022306;28;25071;-65
2022/02/13 07:58:32;;;;;;;14.93;7.72;;;2.90;99.90;;;;;;5009206;28;25056;-67
2022/02/13 08:01:03;;;;;;;18.08;7.30;;;2.90;99.90;;;;;;5007321;28;25069;-66
2022/02/13 08:03:28;;;;;;;12.02;7.55;;;2.90;99.90;;;;;;5015221;28;25129;-67
2022/02/13 08:05:54;;;;;;;13.98;6.90;;;2.90;99.90;;;;;;5020970;28;25083;-67
2022/02/13 08:08:20;;;;;;;11.52;7.57;;;2.90;99.90;;;;;;5017683;28;25088;-66
2022/02/13 08:10:46;;;;;;;13.95;7.38;;;2.90;99.90;;;;;;5006404;28;25134;-67
2022/02/13 08:13:13;;;;;;;15.85;6.80;;;3.00;99.90;;;;;;5006166;28;25455;-65
2022/02/13 08:15:39;;;;;;;11.73;7.25;;;2.90;99.90;;;;;;5003898;28;25071;-67
2022/02/13 08:18:10;;;;;;;12.95;7.63;;;2.90;99.90;;;;;;4988923;28;25067;-67
2022/02/13 08:20:36;;;;;;;12.27;6.97;;;3.00;99.90;;;;;;5008475;28;25083;-67
2022/02/13 08:23:02;;;;;;;14.35;7.35;;;3.00;99.90;;;;;;5009454;28;25079;-66
2022/02/13 08:25:27;;;;;;;14.30;7.78;;;3.00;99.90;;;;;;5024322;28;25085;-64
2022/02/13 08:27:53;;;;;;;11.00;7.43;;;3.00;99.90;;;;;;5028487;28;25098;-66
2022/02/13 08:30:19;;;;;;;14.75;7.00;;;3.00;99.90;;;;;;5011109;28;25132;-66
2022/02/13 08:32:44;;;;;;;13.13;7.65;;;3.10;99.90;;;;;;5019236;28;25073;-65
2022/02/13 08:35:10;;;;;;;13.63;8.13;;;3.10;99.90;;;;;;5013036;28;25106;-67
2022/02/13 08:37:36;;;;;;;10.30;6.97;;;3.10;99.90;;;;;;5006376;28;25055;-66
2022/02/13 08:40:02;;;;;;;13.00;7.63;;;3.10;99.90;;;;;;4999753;28;25072;-65
2022/02/13 08:42:27;;;;;;;15.25;6.68;;;3.20;99.90;;;;;;4994412;28;25103;-66
2022/02/13 08:44:53;;;;;;;14.05;7.55;;;3.20;99.90;;;;;;5027846;28;25066;-68
2022/02/13 08:47:18;;;;;;;13.57;7.57;;;3.20;99.90;;;;;;5016126;28;25127;-66
2022/02/13 08:49:45;;;;;;;13.95;7.60;;;3.20;99.90;;;;;;5019097;28;25072;-69
2022/02/13 08:52:11;;;;;;;9.30;7.18;;;3.30;99.90;;;;;;5028554;28;25087;-66
2022/02/13 08:54:36;;;;;;;14.10;8.07;;;3.50;99.90;;;;;;5020597;28;25059;-67
2022/02/13 08:57:02;;;;;;;15.27;8.02;;;3.40;99.90;;;;;;5012148;28;25065;-63
2022/02/13 08:59:28;;;;;;;12.60;7.68;;;3.50;99.90;;;;;;5010449;28;25149;-65
2022/02/13 09:01:54;;;;;;;14.20;7.50;;;3.50;99.90;;;;;;5021213;28;25085;-64
2022/02/13 09:04:19;;;;;;;12.95;7.20;;;3.60;99.90;;;;;;5010862;28;25058;-67
2022/02/13 09:06:45;;;;;;;14.55;7.72;;;3.80;99.80;;;;;;5012977;28;25071;-66
2022/02/13 09:09:11;;;;;;;12.98;7.85;;;3.90;99.40;;;;;;5016868;28;25084;-65
2022/02/13 09:11:37;;;;;;;14.23;7.68;;;4.00;99.30;;;;;;5027905;28;26154;-66
2022/02/13 09:14:04;;;;;;;10.27;7.00;;;4.00;99.10;;;;;;4993174;28;25079;-64
2022/02/13 09:16:31;;;;;;;11.02;7.57;;;4.00;99.10;;;;;;5011357;28;25107;-66
2022/02/13 09:18:57;;;;;;;12.60;7.97;;;4.30;99.20;;;;;;5009979;28;25079;-66
2022/02/13 09:21:22;;;;;;;13.40;7.72;;;4.40;98.40;;;;;;5021245;28;25060;-67
2022/02/13 09:23:48;;;;;;;12.98;7.22;;;4.40;98.40;;;;;;5020486;28;25082;-65
2022/02/13 09:26:16;;;;;;;13.35;7.95;;;4.40;98.10;;;;;;5015563;28;25090;-67
2022/02/13 09:28:44;;;;;;;12.00;7.43;;;4.40;98.10;;;;;;5025327;28;25062;-66
2022/02/13 09:31:10;;;;;;;12.98;7.90;;;4.50;98.30;;;;;;5012020;28;25076;-66
2022/02/13 09:33:36;;;;;;;14.30;8.10;;;4.50;98.00;;;;;;5010767;28;25054;-66
2022/02/13 09:36:03;;;;;;;14.48;8.65;;;4.60;98.00;;;;;;5017028;28;25059;-65
2022/02/13 09:38:29;;;;;;;15.57;7.38;;;4.70;97.80;;;;;;4996812;28;25108;-65
2022/02/13 09:40:54;;;;;;;10.60;7.13;;;4.70;97.80;;;;;;5012226;28;25079;-66
2022/02/13 09:43:23;;;;;;;15.07;8.73;;;4.70;97.80;;;;;;4992143;28;25076;-64
2022/02/13 09:45:52;;;;;;;12.82;7.45;;;4.80;97.80;;;;;;5014730;28;25070;-65
2022/02/13 09:48:20;;;;;;;15.75;8.68;;;4.90;97.60;;;;;;4973875;28;25068;-66
2022/02/13 09:50:47;;;;;;;14.80;8.02;;;5.00;97.60;;;;;;5011481;28;25094;-65
2022/02/13 09:53:17;;;;;;;14.85;8.57;;;5.10;97.40;;;;;;5017674;28;25068;-66
2022/02/13 09:55:43;;;;;;;14.00;7.90;;;5.20;96.90;;;;;;5009505;28;25147;-66
2022/02/13 09:58:09;;;;;;;18.23;8.18;;;5.30;96.80;;;;;;5006944;28;25091;-67
2022/02/13 10:00:54;;;;;;;15.55;7.85;;;5.30;96.70;;;;;;5010118;28;25057;-67
2022/02/13 10:03:21;;;;;;;16.85;8.30;;;5.40;96.80;;;;;;5009746;28;25071;-66
2022/02/13 10:05:48;;;;;;;14.10;8.02;;;5.50;96.60;;;;;;5023660;28;25105;-67
2022/02/13 10:08:35;;;;;;;17.95;8.48;;;5.60;96.30;;;;;;5016358;28;25057;-66
2022/02/13 10:11:29;;;;;;;14.88;8.30;;;5.70;96.30;;;;;;5008984;28;25070;-67
2022/02/13 10:13:57;;;;;;;16.85;8.35;;;5.80;95.90;;;;;;5008790;28;25051;-67
2022/02/13 10:16:49;;;;;;;14.77;8.00;;;5.80;95.60;;;;;;5007804;28;25110;-66
2022/02/13 10:19:16;;;;;;;12.95;7.65;;;5.90;95.30;;;;;;5009226;28;25162;-66
2022/02/13 10:21:51;;;;;;;14.18;7.80;;;6.00;95.20;;;;;;5006255;28;25056;-65
2022/02/13 10:24:19;;;;;;;15.48;7.70;;;6.10;94.70;;;;;;5011745;28;25139;-64
2022/02/13 10:27:09;;;;;;;13.90;7.80;;;6.20;94.50;;;;;;5008889;28;25063;-65
2022/02/13 10:29:44;;;;;;;11.80;7.30;;;6.30;94.50;;;;;;4986671;28;25077;-66
2022/02/13 10:32:17;;;;;;;10.98;7.03;;;6.40;94.10;;;;;;5026064;28;25108;-65
2022/02/13 10:34:55;;;;;;;12.48;6.78;;;6.60;94.10;;;;;;4988162;28;25092;-67
2022/02/13 10:37:47;;;;;;;8.82;5.75;;;6.60;93.40;;;;;;5027802;28;25095;-66
2022/02/13 10:40:16;;;;;;;13.95;6.45;;;6.70;93.60;;;;;;5014915;28;25138;-67
2022/02/13 10:42:42;;;;;;;10.52;6.25;;;6.80;92.70;;;;;;5008264;28;25082;-67
2022/02/13 10:45:27;;;;;;;10.30;6.18;;;6.70;92.30;;;;;;5008827;28;25030;-67
2022/02/13 10:47:56;;;;;;;7.15;5.50;;;6.70;92.40;;;;;;5007874;28;25066;-65
2022/02/13 10:50:22;;;;;;;11.35;5.80;;;6.90;92.40;;;;;;5008021;28;25085;-66
2022/02/13 10:52:51;;;;;;;11.52;6.38;;;6.90;92.00;;;;;;5011609;28;25058;-68
2022/02/13 10:55:17;;;;;;;8.77;6.00;;;7.00;91.50;;;;;;5019710;28;25155;-66
2022/02/13 10:57:43;;;;;;;10.38;5.53;;;7.00;91.50;;;;;;5027450;28;25126;-66
2022/02/13 11:00:14;;;;;;;7.85;5.45;;;7.10;91.10;;;;;;5016485;28;25067;-66
2022/02/13 11:02:40;;;;;;;7.55;5.80;;;7.10;91.30;;;;;;5009671;28;25070;-65
2022/02/13 11:05:09;;;;;;;11.45;6.28;;;7.30;91.10;;;;;;5031746;28;25098;-66
2022/02/13 11:07:41;;;;;;;9.07;5.25;;;7.40;90.70;;;;;;5023080;28;25072;-67
2022/02/13 11:10:34;;;;;;;8.52;5.72;;;7.60;90.70;;;;;;5027264;28;25094;-67
2022/02/13 11:13:01;;;;;;;8.80;5.68;;;7.70;90.20;;;;;;5017477;28;25101;-67
2022/02/13 11:15:31;;;;;;;9.82;6.20;;;7.80;90.40;;;;;;5011077;28;25106;-67
2022/02/13 11:18:05;;;;;;;9.80;5.95;;;7.70;89.80;;;;;;5009388;28;25106;-66
2022/02/13 11:20:32;;;;;;;9.32;5.70;;;7.60;90.70;;;;;;5019420;28;25072;-67
2022/02/13 11:23:17;;;;;;;8.13;5.57;;;7.90;90.60;;;;;;5007187;28;25065;-67
2022/02/13 11:26:07;;;;;;;8.82;5.55;;;8.20;90.30;;;;;;5010798;28;25074;-66
2022/02/13 11:28:42;;;;;;;11.48;5.90;;;8.20;89.70;;;;;;5003846;28;25052;-67
2022/02/13 11:31:28;;;;;;;7.43;5.55;;;8.20;89.60;;;;;;5026849;28;25074;-66
2022/02/13 11:33:54;;;;;;;8.23;5.43;;;8.20;90.10;;;;;;5009350;28;25119;-67
2022/02/13 11:36:19;;;;;;;9.40;5.75;;;8.30;90.10;;;;;;4989026;28;25056;-66
2022/02/13 11:38:48;;;;;;;9.75;5.38;;;8.20;90.30;;;;;;5011877;28;25115;-67
2022/02/13 11:41:16;;;;;;;7.32;5.80;;;8.30;91.10;;;;;;5015061;28;25167;-66
2022/02/13 11:43:44;;;;;;;8.80;5.25;;;8.40;90.60;;;;;;5016789;28;25149;-67
2022/02/13 11:46:30;;;;;;;12.82;8.05;;;8.50;91.20;;;;;;4987784;28;25058;-67
2022/02/13 11:49:11;;;;;;;8.60;5.63;;;8.80;90.80;;;;;;5006458;28;25089;-66
2022/02/13 11:51:45;;;;;;;14.35;7.95;;;9.00;90.50;;;;;;5010379;28;25170;-67
2022/02/13 11:54:46;;;;;;;8.70;6.20;;;8.90;90.80;;;;;;5005670;28;25076;-67
2022/02/13 11:57:15;;;;;;;10.25;6.68;;;9.00;90.70;;;;;;5010284;28;25084;-66
2022/02/13 11:59:48;;;;;;;8.68;6.45;;;9.10;91.00;;;;;;5013895;28;25065;-66
2022/02/13 12:02:15;;;;;;;10.52;6.75;;;9.00;91.00;;;;;;5007587;28;25141;-66
2022/02/13 12:05:05;;;;;;;11.77;7.50;;;9.00;91.10;;;;;;5009541;28;25085;-65
2022/02/13 12:07:54;;;;;;;12.63;7.72;;;8.90;91.40;;;;;;5026344;28;25115;-68
2022/02/13 12:10:37;;;;;;;13.77;8.05;;;8.70;91.80;;;;;;5010445;28;25059;-67
2022/02/13 12:13:13;;;;;;;17.10;10.07;;;8.60;92.20;;;;;;5019639;28;25047;-67
2022/02/13 12:15:41;;;;;;;16.80;8.73;;;8.80;92.50;;;;;;5012371;28;25055;-67
2022/02/13 12:18:17;;;;;;;15.88;7.63;;;9.10;92.30;;;;;;5010306;28;25071;-66
2022/02/13 12:20:44;;;;;;;14.48;8.73;;;9.60;91.60;;;;;;5008977;28;25060;-67
2022/02/13 12:23:15;;;;;;;16.35;8.40;;;9.90;90.80;;;;;;5010191;28;25066;-66
2022/02/13 12:25:43;;;;;;;13.05;7.00;;;10.10;90.80;;;;;;5012267;28;25149;-67
2022/02/13 12:28:11;;;;;;;13.15;7.78;;;10.40;89.70;;;;;;5007396;28;25080;-68
2022/02/13 12:30:45;;;;;;;12.40;6.57;;;10.40;88.40;;;;;;5009118;28;25110;-66
2022/02/13 12:33:12;;;;;;;26.15;12.60;;;10.20;88.90;;;;;;5011559;28;25076;-65
2022/02/13 12:35:38;;;;;;;10.25;6.32;;;9.80;89.50;;;;;;5005739;28;25106;-69
2022/02/13 12:38:06;;;;;;;8.57;5.78;;;9.70;90.30;;;;;;5005055;28;25091;-68
2022/02/13 12:40:43;;;;;;;11.98;6.05;;;9.70;90.40;;;;;;5006827;28;25167;-68
2022/02/13 12:43:22;;;;;;;9.05;5.57;;;9.70;90.60;;;;;;4992444;28;25052;-66
2022/02/13 12:45:50;;;;;;;10.02;5.43;;;9.70;90.50;;;;;;5008917;28;25082;-69
2022/02/13 12:48:17;;;;;;;8.02;5.47;;;9.80;90.90;;;;;;5008062;28;25058;-68
2022/02/13 12:50:46;;;;;;;8.98;5.82;;;9.70;90.70;;;;;;5010149;28;25109;-66